»·PEaware :: N5GL KSNA-KSBA

N5GL :: KSNA-KSBA

FLIGHT INFORMATION

Flight Status: Arrived
Operator: Privately registered:
United States
More flights under this callsign
Pilot: Georg L. (13308)
Aircraft: SOCATA TBM-900
(TBM9)
More flights by this aircraft type
Origin: KSNA John Wayne-Orange Co
United States
Destination: KSBA Santa Barbara Mun
United States
More flights between these airports :: More routes between these airports
Route: +SXC V208 VTU VTU282 KWANG
File this flight plan on PilotEdge
Remarks: TEC ROUTE CSTP21
Altitude:
(Current/Filed)
10,000ft
Speed:
(Current/Filed)
277kts
Departed: 19-Apr-20 01:27 PM
Arrived: 19-Apr-20 02:06 PM
Distance/Time
Traveled:
108nm/0:39
Distance/Time
To Go:
Arrived

Flight Plot

Page will automatically refresh every two minutes.


Map Options




Map Legend


Flown Route
Filed Route
Departure Airport
Arrival Airport
Navaid (VOR, NDB)
Fix

Horizontal Profiles

Position Reports

Time Latitude Longitude Heading Altitude Ground
Speed
19-Apr-20 12:42 33.665695 -117.872566 0 59ft 0kts
19-Apr-20 12:43 33.665695 -117.872566 0 59ft 0kts
19-Apr-20 12:44 33.665695 -117.872566 0 59ft 0kts
19-Apr-20 12:45 33.665695 -117.872566 0 59ft 0kts
19-Apr-20 12:46 33.666039 -117.872792 276 59ft 2kts
19-Apr-20 12:47 33.666103 -117.872865 348 59ft 0kts
19-Apr-20 12:48 33.666103 -117.872865 348 59ft 0kts
19-Apr-20 12:49 33.666103 -117.872865 348 59ft 0kts
19-Apr-20 12:50 33.666103 -117.872865 348 59ft 0kts
19-Apr-20 12:51 33.666103 -117.872865 348 59ft 0kts
19-Apr-20 12:52 33.666103 -117.872865 348 59ft 0kts
19-Apr-20 12:53 33.666103 -117.872865 348 59ft 0kts
19-Apr-20 12:54 33.666103 -117.872865 348 59ft 0kts
19-Apr-20 12:55 33.666103 -117.872865 348 59ft 0kts
19-Apr-20 12:56 33.666103 -117.872865 348 59ft 0kts
19-Apr-20 12:57 33.666103 -117.872865 348 59ft 0kts
19-Apr-20 12:58 33.666103 -117.872865 348 59ft 0kts
19-Apr-20 12:59 33.666103 -117.872865 348 59ft 0kts
19-Apr-20 13:00 33.666103 -117.872865 348 59ft 0kts
19-Apr-20 13:01 33.666103 -117.872865 348 59ft 0kts
19-Apr-20 13:02 33.666103 -117.872865 348 59ft 0kts
19-Apr-20 13:03 33.666103 -117.872865 348 59ft 0kts
19-Apr-20 13:04 33.666103 -117.872865 348 59ft 0kts
19-Apr-20 13:05 33.666103 -117.872865 348 59ft 0kts
19-Apr-20 13:06 33.666103 -117.872865 348 59ft 0kts
19-Apr-20 13:07 33.666103 -117.872865 348 59ft 0kts
19-Apr-20 13:08 33.666103 -117.872865 348 59ft 0kts
19-Apr-20 13:09 33.666103 -117.872865 348 59ft 0kts
19-Apr-20 13:10 33.666103 -117.872865 348 59ft 0kts
19-Apr-20 13:11 33.666103 -117.872865 348 59ft 0kts
19-Apr-20 13:12 33.666103 -117.872865 348 59ft 0kts
19-Apr-20 13:13 33.666103 -117.872865 348 59ft 0kts
19-Apr-20 13:14 33.666103 -117.872865 348 59ft 0kts
19-Apr-20 13:15 33.666103 -117.872865 348 59ft 0kts
19-Apr-20 13:16 33.666863 -117.873126 32 59ft 8kts
19-Apr-20 13:17 33.667105 -117.872940 32 59ft 0kts
19-Apr-20 13:18 33.667265 -117.872819 31 59ft 0kts
19-Apr-20 13:19 33.667299 -117.872793 31 59ft 2kts
19-Apr-20 13:20 33.670551 -117.869456 40 59ft 21kts
19-Apr-20 13:21 33.673936 -117.867207 18 59ft 9kts
19-Apr-20 13:22 33.678679 -117.864198 27 59ft 20kts
19-Apr-20 13:23 33.679971 -117.863644 298 59ft 0kts
19-Apr-20 13:24 33.679971 -117.863645 298 59ft 0kts
19-Apr-20 13:25 33.680117 -117.864047 273 59ft 8kts
19-Apr-20 13:26 33.667432 -117.872539 206 645ft 111kts
19-Apr-20 13:27 33.633846 -117.876644 186 2836ft 129kts
19-Apr-20 13:28 33.598356 -117.879824 186 5301ft 132kts
19-Apr-20 13:29 33.561619 -117.882919 186 7650ft 137kts
19-Apr-20 13:30 33.510129 -117.887781 186 8045ft 229kts
19-Apr-20 13:32 33.443016 -117.894953 186 8020ft 249kts
19-Apr-20 13:33 33.377109 -117.912882 235 7998ft 247kts
19-Apr-20 13:34 33.385806 -117.991656 273 8022ft 247kts
19-Apr-20 13:35 33.385655 -118.074198 267 8018ft 249kts
19-Apr-20 13:36 33.383268 -118.157192 267 8023ft 248kts
19-Apr-20 13:37 33.380751 -118.239700 267 8029ft 247kts
19-Apr-20 13:38 33.378188 -118.321813 267 8036ft 246kts
19-Apr-20 13:39 33.375570 -118.404062 268 8042ft 246kts
19-Apr-20 13:40 33.415192 -118.466205 314 8045ft 249kts
19-Apr-20 13:41 33.459455 -118.517348 314 8046ft 249kts
19-Apr-20 13:42 33.509456 -118.575206 314 8042ft 250kts
19-Apr-20 13:43 33.559799 -118.633557 314 7998ft 251kts
19-Apr-20 13:44 33.609494 -118.691260 313 8001ft 251kts
19-Apr-20 13:45 33.659781 -118.749744 313 8003ft 251kts
19-Apr-20 13:46 33.710001 -118.808254 313 8029ft 250kts
19-Apr-20 13:47 33.760058 -118.866677 313 8036ft 251kts
19-Apr-20 13:48 33.810121 -118.925208 313 8037ft 251kts
19-Apr-20 13:48 33.851850 -118.974069 313 8036ft 250kts
19-Apr-20 13:50 33.910156 -119.042459 313 8036ft 250kts
19-Apr-20 13:51 33.960122 -119.101173 313 8036ft 250kts
19-Apr-20 13:52 34.009868 -119.159731 313 8034ft 250kts
19-Apr-20 13:52 34.051461 -119.208771 313 8031ft 250kts
19-Apr-20 13:53 34.102104 -119.268581 313 7471ft 262kts
19-Apr-20 13:55 34.163504 -119.341231 313 6293ft 264kts
19-Apr-20 13:55 34.206888 -119.392658 313 5450ft 258kts
19-Apr-20 13:56 34.257638 -119.452920 313 4437ft 254kts
19-Apr-20 13:57 34.306008 -119.513842 302 4024ft 244kts
19-Apr-20 13:58 34.343381 -119.581537 302 4032ft 241kts
19-Apr-20 13:59 34.380607 -119.649124 302 4034ft 241kts
19-Apr-20 14:00 34.417608 -119.716364 302 4037ft 241kts
19-Apr-20 14:01 34.452340 -119.779294 302 3789ft 211kts
19-Apr-20 14:02 34.460694 -119.842629 231 1881ft 189kts
19-Apr-20 14:03 34.440683 -119.812106 49 1037ft 152kts
19-Apr-20 14:04 34.445671 -119.836471 226 775ft 125kts
19-Apr-20 14:05 34.420998 -119.837369 165 13ft 31kts
19-Apr-20 14:06 34.419901 -119.836408 39 13ft 0kts
19-Apr-20 14:07 34.421692 -119.836472 347 13ft 13kts
19-Apr-20 14:08 34.422768 -119.835702 303 13ft 0kts
19-Apr-20 14:09 34.422768 -119.835702 303 13ft 0kts
19-Apr-20 14:10 34.422768 -119.835702 303 13ft 0kts
19-Apr-20 14:11 34.422768 -119.835702 303 13ft 0kts
19-Apr-20 14:12 34.422768 -119.835702 303 13ft 0kts
19-Apr-20 14:13 34.422768 -119.835702 303 13ft 0kts
19-Apr-20 14:14 34.422768 -119.835702 303 13ft 0kts
19-Apr-20 14:15 34.422768 -119.835702 303 13ft 0kts
19-Apr-20 14:16 34.422768 -119.835702 303 13ft 0kts
19-Apr-20 14:17 34.422768 -119.835702 303 13ft 0kts

Navigation Log

Ident Type
Flight plan parsing failed, navigation log unavailable